sensor_id;sensor_type;location;lat;lon;timestamp;P1;durP1;ratioP1;P2;durP2;ratioP2
6424;SDS011;12193;42.642;23.384;2023-05-29T00:00:31;11.53;;;5.47;;
6424;SDS011;12193;42.642;23.384;2023-05-29T00:03:00;9.53;;;5.43;;
6424;SDS011;12193;42.642;23.384;2023-05-29T00:05:33;6.30;;;4.60;;
6424;SDS011;12193;42.642;23.384;2023-05-29T03:08:43;9.57;;;6.50;;
6424;SDS011;12193;42.642;23.384;2023-05-29T03:11:13;9.93;;;6.63;;
6424;SDS011;12193;42.642;23.384;2023-05-29T03:13:43;14.10;;;6.73;;
6424;SDS011;12193;42.642;23.384;2023-05-29T03:16:15;12.63;;;6.93;;
6424;SDS011;12193;42.642;23.384;2023-05-29T03:18:44;15.87;;;7.70;;
6424;SDS011;12193;42.642;23.384;2023-05-29T03:21:16;9.43;;;6.60;;
6424;SDS011;12193;42.642;23.384;2023-05-29T03:23:48;12.93;;;6.60;;
6424;SDS011;12193;42.642;23.384;2023-05-29T03:26:18;10.90;;;6.60;;
6424;SDS011;12193;42.642;23.384;2023-05-29T03:28:47;11.40;;;6.93;;
6424;SDS011;12193;42.642;23.384;2023-05-29T03:31:16;13.40;;;7.13;;
6424;SDS011;12193;42.642;23.384;2023-05-29T03:33:46;12.00;;;7.07;;
6424;SDS011;12193;42.642;23.384;2023-05-29T03:36:15;10.47;;;6.93;;
6424;SDS011;12193;42.642;23.384;2023-05-29T03:38:48;13.00;;;6.47;;
6424;SDS011;12193;42.642;23.384;2023-05-29T03:41:17;10.37;;;6.73;;
6424;SDS011;12193;42.642;23.384;2023-05-29T03:43:47;14.53;;;7.20;;
6424;SDS011;12193;42.642;23.384;2023-05-29T03:46:16;13.77;;;7.53;;
6424;SDS011;12193;42.642;23.384;2023-05-29T03:48:45;13.60;;;6.97;;
6424;SDS011;12193;42.642;23.384;2023-05-29T03:51:15;12.57;;;7.43;;
6424;SDS011;12193;42.642;23.384;2023-05-29T03:53:44;12.43;;;7.13;;
6424;SDS011;12193;42.642;23.384;2023-05-29T03:56:16;17.17;;;7.87;;
6424;SDS011;12193;42.642;23.384;2023-05-29T03:58:45;14.27;;;7.73;;
6424;SDS011;12193;42.642;23.384;2023-05-29T04:01:15;12.87;;;7.43;;
6424;SDS011;12193;42.642;23.384;2023-05-29T04:03:44;16.43;;;8.10;;
6424;SDS011;12193;42.642;23.384;2023-05-29T04:06:13;17.60;;;7.63;;
6424;SDS011;12193;42.642;23.384;2023-05-29T04:08:43;12.43;;;7.07;;
6424;SDS011;12193;42.642;23.384;2023-05-29T04:11:13;14.33;;;7.30;;
6424;SDS011;12193;42.642;23.384;2023-05-29T04:13:46;14.97;;;7.30;;
6424;SDS011;12193;42.642;23.384;2023-05-29T04:16:16;15.67;;;7.23;;
6424;SDS011;12193;42.642;23.384;2023-05-29T04:18:45;10.83;;;6.93;;
6424;SDS011;12193;42.642;23.384;2023-05-29T04:21:14;12.20;;;6.90;;
6424;SDS011;12193;42.642;23.384;2023-05-29T04:23:44;14.20;;;6.60;;
6424;SDS011;12193;42.642;23.384;2023-05-29T04:26:13;15.80;;;7.07;;
6424;SDS011;12193;42.642;23.384;2023-05-29T04:28:45;13.00;;;6.77;;
6424;SDS011;12193;42.642;23.384;2023-05-29T04:31:14;12.93;;;6.23;;
6424;SDS011;12193;42.642;23.384;2023-05-29T04:33:45;12.53;;;6.03;;
6424;SDS011;12193;42.642;23.384;2023-05-29T04:36:14;14.03;;;6.30;;
6424;SDS011;12193;42.642;23.384;2023-05-29T04:38:45;11.80;;;6.33;;
6424;SDS011;12193;42.642;23.384;2023-05-29T04:41:17;12.87;;;6.37;;
6424;SDS011;12193;42.642;23.384;2023-05-29T04:43:51;11.53;;;6.43;;
6424;SDS011;12193;42.642;23.384;2023-05-29T04:46:21;12.33;;;6.33;;
6424;SDS011;12193;42.642;23.384;2023-05-29T04:48:50;14.13;;;6.27;;
6424;SDS011;12193;42.642;23.384;2023-05-29T04:51:22;14.23;;;6.20;;
6424;SDS011;12193;42.642;23.384;2023-05-29T04:53:54;13.40;;;5.97;;
6424;SDS011;12193;42.642;23.384;2023-05-29T04:56:23;15.20;;;7.20;;
6424;SDS011;12193;42.642;23.384;2023-05-29T04:58:55;11.77;;;6.43;;
6424;SDS011;12193;42.642;23.384;2023-05-29T05:01:24;14.07;;;5.93;;
6424;SDS011;12193;42.642;23.384;2023-05-29T05:03:54;9.30;;;5.40;;
6424;SDS011;12193;42.642;23.384;2023-05-29T05:06:24;8.87;;;4.83;;
6424;SDS011;12193;42.642;23.384;2023-05-29T05:08:54;9.83;;;5.03;;
6424;SDS011;12193;42.642;23.384;2023-05-29T05:11:23;12.60;;;4.97;;
6424;SDS011;12193;42.642;23.384;2023-05-29T05:13:56;7.00;;;4.30;;
6424;SDS011;12193;42.642;23.384;2023-05-29T05:16:25;9.80;;;4.50;;
6424;SDS011;12193;42.642;23.384;2023-05-29T05:18:55;6.70;;;4.63;;
6424;SDS011;12193;42.642;23.384;2023-05-29T05:21:24;9.03;;;4.60;;
6424;SDS011;12193;42.642;23.384;2023-05-29T05:23:56;10.30;;;4.77;;
6424;SDS011;12193;42.642;23.384;2023-05-29T05:26:26;11.77;;;5.00;;
6424;SDS011;12193;42.642;23.384;2023-05-29T05:28:58;11.63;;;5.00;;
6424;SDS011;12193;42.642;23.384;2023-05-29T05:31:27;8.40;;;4.47;;
6424;SDS011;12193;42.642;23.384;2023-05-29T05:33:56;7.93;;;4.20;;
6424;SDS011;12193;42.642;23.384;2023-05-29T05:36:26;6.87;;;4.20;;
6424;SDS011;12193;42.642;23.384;2023-05-29T05:38:56;8.70;;;4.47;;
6424;SDS011;12193;42.642;23.384;2023-05-29T05:41:26;11.03;;;4.93;;
6424;SDS011;12193;42.642;23.384;2023-05-29T05:43:58;14.40;;;5.10;;
6424;SDS011;12193;42.642;23.384;2023-05-29T05:46:27;13.30;;;5.53;;
6424;SDS011;12193;42.642;23.384;2023-05-29T05:48:56;10.93;;;4.97;;
6424;SDS011;12193;42.642;23.384;2023-05-29T05:51:27;12.73;;;5.90;;
6424;SDS011;12193;42.642;23.384;2023-05-29T05:53:56;11.93;;;6.53;;
6424;SDS011;12193;42.642;23.384;2023-05-29T05:56:25;13.27;;;7.47;;
6424;SDS011;12193;42.642;23.384;2023-05-29T05:58:55;15.00;;;7.33;;
6424;SDS011;12193;42.642;23.384;2023-05-29T06:01:26;14.57;;;6.43;;
6424;SDS011;12193;42.642;23.384;2023-05-29T06:03:56;8.87;;;5.93;;
6424;SDS011;12193;42.642;23.384;2023-05-29T06:06:25;7.67;;;5.10;;
6424;SDS011;12193;42.642;23.384;2023-05-29T06:08:57;9.43;;;4.60;;
6424;SDS011;12193;42.642;23.384;2023-05-29T06:11:27;8.13;;;4.60;;
6424;SDS011;12193;42.642;23.384;2023-05-29T06:13:58;7.17;;;5.00;;
6424;SDS011;12193;42.642;23.384;2023-05-29T06:16:28;14.07;;;5.30;;
6424;SDS011;12193;42.642;23.384;2023-05-29T06:18:57;5.60;;;4.40;;
6424;SDS011;12193;42.642;23.384;2023-05-29T06:21:26;8.80;;;4.70;;
6424;SDS011;12193;42.642;23.384;2023-05-29T06:23:55;6.03;;;3.70;;
6424;SDS011;12193;42.642;23.384;2023-05-29T06:26:25;11.07;;;4.60;;
6424;SDS011;12193;42.642;23.384;2023-05-29T06:28:55;7.60;;;4.20;;
6424;SDS011;12193;42.642;23.384;2023-05-29T06:31:27;9.67;;;4.43;;
6424;SDS011;12193;42.642;23.384;2023-05-29T06:33:56;10.07;;;4.40;;
6424;SDS011;12193;42.642;23.384;2023-05-29T06:36:25;11.07;;;4.43;;
6424;SDS011;12193;42.642;23.384;2023-05-29T06:38:55;10.53;;;4.10;;
6424;SDS011;12193;42.642;23.384;2023-05-29T06:41:24;6.30;;;4.00;;
6424;SDS011;12193;42.642;23.384;2023-05-29T06:43:54;9.63;;;4.10;;
6424;SDS011;12193;42.642;23.384;2023-05-29T06:46:26;6.60;;;3.50;;
6424;SDS011;12193;42.642;23.384;2023-05-29T06:48:55;7.30;;;3.47;;
6424;SDS011;12193;42.642;23.384;2023-05-29T06:51:24;4.67;;;2.73;;
6424;SDS011;12193;42.642;23.384;2023-05-29T06:53:53;6.10;;;3.00;;
6424;SDS011;12193;42.642;23.384;2023-05-29T06:56:23;5.80;;;3.50;;
6424;SDS011;12193;42.642;23.384;2023-05-29T06:58:53;4.80;;;3.07;;
6424;SDS011;12193;42.642;23.384;2023-05-29T07:01:22;7.80;;;3.23;;
6424;SDS011;12193;42.642;23.384;2023-05-29T07:03:55;4.40;;;2.77;;
6424;SDS011;12193;42.642;23.384;2023-05-29T07:06:24;4.30;;;3.23;;
6424;SDS011;12193;42.642;23.384;2023-05-29T07:08:53;4.83;;;3.20;;
6424;SDS011;12193;42.642;23.384;2023-05-29T07:11:22;6.57;;;2.60;;
6424;SDS011;12193;42.642;23.384;2023-05-29T07:13:52;4.23;;;2.87;;
6424;SDS011;12193;42.642;23.384;2023-05-29T07:16:22;7.30;;;2.90;;
6424;SDS011;12193;42.642;23.384;2023-05-29T07:18:54;4.63;;;2.67;;
6424;SDS011;12193;42.642;23.384;2023-05-29T07:21:23;3.17;;;2.47;;
6424;SDS011;12193;42.642;23.384;2023-05-29T07:23:52;5.03;;;2.43;;
6424;SDS011;12193;42.642;23.384;2023-05-29T07:26:22;7.90;;;2.57;;
6424;SDS011;12193;42.642;23.384;2023-05-29T07:28:51;5.47;;;2.70;;
6424;SDS011;12193;42.642;23.384;2023-05-29T07:31:20;6.60;;;2.57;;
6424;SDS011;12193;42.642;23.384;2023-05-29T07:33:50;5.90;;;2.60;;
6424;SDS011;12193;42.642;23.384;2023-05-29T07:36:21;3.80;;;2.60;;
6424;SDS011;12193;42.642;23.384;2023-05-29T07:38:51;4.50;;;2.70;;
6424;SDS011;12193;42.642;23.384;2023-05-29T07:41:23;4.63;;;2.77;;
6424;SDS011;12193;42.642;23.384;2023-05-29T07:43:54;6.63;;;2.80;;
6424;SDS011;12193;42.642;23.384;2023-05-29T07:46:23;4.33;;;2.77;;
6424;SDS011;12193;42.642;23.384;2023-05-29T07:48:53;6.90;;;2.80;;
6424;SDS011;12193;42.642;23.384;2023-05-29T07:51:24;7.60;;;3.37;;
6424;SDS011;12193;42.642;23.384;2023-05-29T07:53:54;4.40;;;2.90;;
6424;SDS011;12193;42.642;23.384;2023-05-29T07:56:23;4.27;;;2.70;;
6424;SDS011;12193;42.642;23.384;2023-05-29T07:58:52;4.63;;;3.00;;
6424;SDS011;12193;42.642;23.384;2023-05-29T08:01:22;4.87;;;2.90;;
6424;SDS011;12193;42.642;23.384;2023-05-29T08:03:51;3.90;;;3.00;;
6424;SDS011;12193;42.642;23.384;2023-05-29T08:06:21;7.57;;;3.00;;
6424;SDS011;12193;42.642;23.384;2023-05-29T08:08:53;6.30;;;3.20;;
6424;SDS011;12193;42.642;23.384;2023-05-29T08:11:22;5.70;;;3.20;;
6424;SDS011;12193;42.642;23.384;2023-05-29T08:13:51;5.00;;;2.87;;
6424;SDS011;12193;42.642;23.384;2023-05-29T08:16:21;5.10;;;3.30;;
6424;SDS011;12193;42.642;23.384;2023-05-29T08:18:50;3.90;;;2.90;;
6424;SDS011;12193;42.642;23.384;2023-05-29T08:21:20;5.77;;;3.00;;
6424;SDS011;12193;42.642;23.384;2023-05-29T08:23:49;4.83;;;2.77;;
6424;SDS011;12193;42.642;23.384;2023-05-29T08:26:21;4.40;;;3.10;;
6424;SDS011;12193;42.642;23.384;2023-05-29T08:28:51;4.97;;;3.53;;
6424;SDS011;12193;42.642;23.384;2023-05-29T08:31:20;4.57;;;3.10;;
6424;SDS011;12193;42.642;23.384;2023-05-29T08:33:50;6.90;;;3.20;;
6424;SDS011;12193;42.642;23.384;2023-05-29T08:36:20;5.10;;;3.70;;
6424;SDS011;12193;42.642;23.384;2023-05-29T08:38:49;6.20;;;3.20;;
6424;SDS011;12193;42.642;23.384;2023-05-29T08:41:24;7.63;;;3.60;;
6424;SDS011;12193;42.642;23.384;2023-05-29T08:43:57;6.83;;;3.57;;
6424;SDS011;12193;42.642;23.384;2023-05-29T08:46:29;4.93;;;2.80;;
6424;SDS011;12193;42.642;23.384;2023-05-29T08:48:59;3.80;;;3.00;;
6424;SDS011;12193;42.642;23.384;2023-05-29T08:51:31;4.63;;;2.80;;
6424;SDS011;12193;42.642;23.384;2023-05-29T08:54:04;3.83;;;3.00;;
6424;SDS011;12193;42.642;23.384;2023-05-29T08:56:36;6.47;;;2.70;;
6424;SDS011;12193;42.642;23.384;2023-05-29T08:59:05;5.27;;;3.00;;
6424;SDS011;12193;42.642;23.384;2023-05-29T09:01:37;5.00;;;3.00;;
6424;SDS011;12193;42.642;23.384;2023-05-29T09:04:08;6.07;;;3.20;;
6424;SDS011;12193;42.642;23.384;2023-05-29T09:06:37;8.07;;;3.30;;
6424;SDS011;12193;42.642;23.384;2023-05-29T09:09:08;4.17;;;3.07;;
6424;SDS011;12193;42.642;23.384;2023-05-29T09:11:41;6.77;;;2.77;;
6424;SDS011;12193;42.642;23.384;2023-05-29T09:17:03;5.83;;;3.00;;
6424;SDS011;12193;42.642;23.384;2023-05-29T09:19:34;7.30;;;3.23;;
6424;SDS011;12193;42.642;23.384;2023-05-29T09:22:07;4.87;;;3.00;;
6424;SDS011;12193;42.642;23.384;2023-05-29T09:24:40;3.40;;;2.73;;
6424;SDS011;12193;42.642;23.384;2023-05-29T09:27:14;6.20;;;2.83;;
6424;SDS011;12193;42.642;23.384;2023-05-29T09:29:44;6.33;;;3.27;;
6424;SDS011;12193;42.642;23.384;2023-05-29T09:32:14;6.00;;;3.40;;
6424;SDS011;12193;42.642;23.384;2023-05-29T09:34:44;5.70;;;3.50;;
6424;SDS011;12193;42.642;23.384;2023-05-29T09:37:14;6.50;;;3.37;;
6424;SDS011;12193;42.642;23.384;2023-05-29T09:39:48;4.73;;;3.13;;
6424;SDS011;12193;42.642;23.384;2023-05-29T09:42:20;3.90;;;3.20;;
6424;SDS011;12193;42.642;23.384;2023-05-29T09:44:50;5.47;;;3.10;;
6424;SDS011;12193;42.642;23.384;2023-05-29T09:47:20;5.33;;;2.87;;
6424;SDS011;12193;42.642;23.384;2023-05-29T09:49:50;6.80;;;3.50;;
6424;SDS011;12193;42.642;23.384;2023-05-29T09:52:21;6.77;;;3.50;;
6424;SDS011;12193;42.642;23.384;2023-05-29T09:54:50;4.93;;;3.33;;
6424;SDS011;12193;42.642;23.384;2023-05-29T09:57:25;7.43;;;3.40;;
6424;SDS011;12193;42.642;23.384;2023-05-29T09:59:56;7.93;;;3.80;;
6424;SDS011;12193;42.642;23.384;2023-05-29T10:02:27;10.30;;;3.50;;
6424;SDS011;12193;42.642;23.384;2023-05-29T10:04:57;5.07;;;2.97;;
6424;SDS011;12193;42.642;23.384;2023-05-29T10:07:27;5.63;;;3.13;;
6424;SDS011;12193;42.642;23.384;2023-05-29T10:09:59;5.47;;;3.13;;
6424;SDS011;12193;42.642;23.384;2023-05-29T10:12:34;5.63;;;3.00;;
6424;SDS011;12193;42.642;23.384;2023-05-29T10:15:11;6.93;;;3.27;;
6424;SDS011;12193;42.642;23.384;2023-05-29T10:17:44;5.20;;;2.87;;
6424;SDS011;12193;42.642;23.384;2023-05-29T10:20:25;4.93;;;3.57;;
6424;SDS011;12193;42.642;23.384;2023-05-29T10:22:57;5.67;;;3.30;;
6424;SDS011;12193;42.642;23.384;2023-05-29T10:25:29;5.43;;;3.30;;
6424;SDS011;12193;42.642;23.384;2023-05-29T10:28:05;4.00;;;3.07;;
6424;SDS011;12193;42.642;23.384;2023-05-29T10:30:36;4.13;;;3.13;;
6424;SDS011;12193;42.642;23.384;2023-05-29T10:33:17;5.33;;;3.43;;
6424;SDS011;12193;42.642;23.384;2023-05-29T10:35:59;9.23;;;3.97;;
6424;SDS011;12193;42.642;23.384;2023-05-29T10:38:34;4.43;;;3.37;;
6424;SDS011;12193;42.642;23.384;2023-05-29T10:44:02;7.63;;;3.23;;
6424;SDS011;12193;42.642;23.384;2023-05-29T10:49:31;5.97;;;3.90;;
6424;SDS011;12193;42.642;23.384;2023-05-29T10:52:02;5.60;;;3.60;;
6424;SDS011;12193;42.642;23.384;2023-05-29T10:57:22;7.97;;;3.90;;
6424;SDS011;12193;42.642;23.384;2023-05-29T11:00:01;4.90;;;3.80;;
6424;SDS011;12193;42.642;23.384;2023-05-29T11:02:39;9.73;;;3.70;;
6424;SDS011;12193;42.642;23.384;2023-05-29T11:05:19;7.20;;;3.73;;
6424;SDS011;12193;42.642;23.384;2023-05-29T11:07:56;9.27;;;4.50;;
6424;SDS011;12193;42.642;23.384;2023-05-29T11:13:22;8.63;;;4.63;;
6424;SDS011;12193;42.642;23.384;2023-05-29T11:19:04;7.43;;;4.30;;
6424;SDS011;12193;42.642;23.384;2023-05-29T11:21:43;7.60;;;4.30;;
6424;SDS011;12193;42.642;23.384;2023-05-29T11:24:21;5.67;;;3.80;;
6424;SDS011;12193;42.642;23.384;2023-05-29T11:26:52;7.27;;;3.90;;
6424;SDS011;12193;42.642;23.384;2023-05-29T11:29:24;8.50;;;4.03;;
6424;SDS011;12193;42.642;23.384;2023-05-29T11:31:59;6.40;;;3.87;;
6424;SDS011;12193;42.642;23.384;2023-05-29T11:34:31;5.40;;;3.70;;
6424;SDS011;12193;42.642;23.384;2023-05-29T11:37:02;5.73;;;3.67;;
6424;SDS011;12193;42.642;23.384;2023-05-29T11:39:31;8.60;;;4.10;;
6424;SDS011;12193;42.642;23.384;2023-05-29T11:42:05;6.40;;;3.93;;
6424;SDS011;12193;42.642;23.384;2023-05-29T11:44:35;7.30;;;4.00;;
6424;SDS011;12193;42.642;23.384;2023-05-29T11:47:07;6.90;;;4.07;;
6424;SDS011;12193;42.642;23.384;2023-05-29T11:49:37;6.77;;;4.13;;
6424;SDS011;12193;42.642;23.384;2023-05-29T11:52:07;3.37;;;2.90;;
6424;SDS011;12193;42.642;23.384;2023-05-29T11:54:36;6.43;;;4.00;;
6424;SDS011;12193;42.642;23.384;2023-05-29T11:57:07;5.67;;;3.67;;
6424;SDS011;12193;42.642;23.384;2023-05-29T11:59:37;6.80;;;3.63;;
6424;SDS011;12193;42.642;23.384;2023-05-29T12:02:09;5.47;;;3.83;;
6424;SDS011;12193;42.642;23.384;2023-05-29T12:04:39;6.33;;;3.73;;
6424;SDS011;12193;42.642;23.384;2023-05-29T12:07:16;8.77;;;4.57;;
6424;SDS011;12193;42.642;23.384;2023-05-29T12:09:46;4.33;;;3.30;;
6424;SDS011;12193;42.642;23.384;2023-05-29T12:12:18;6.37;;;3.70;;
6424;SDS011;12193;42.642;23.384;2023-05-29T12:14:49;5.27;;;4.07;;
6424;SDS011;12193;42.642;23.384;2023-05-29T12:17:21;5.30;;;3.70;;
6424;SDS011;12193;42.642;23.384;2023-05-29T12:19:52;4.70;;;3.53;;
6424;SDS011;12193;42.642;23.384;2023-05-29T12:22:30;9.80;;;3.50;;
6424;SDS011;12193;42.642;23.384;2023-05-29T12:25:05;6.93;;;3.43;;
6424;SDS011;12193;42.642;23.384;2023-05-29T12:27:36;5.67;;;3.67;;
6424;SDS011;12193;42.642;23.384;2023-05-29T12:30:10;5.30;;;3.50;;
6424;SDS011;12193;42.642;23.384;2023-05-29T12:32:44;4.47;;;3.43;;
6424;SDS011;12193;42.642;23.384;2023-05-29T12:35:16;6.23;;;4.07;;
6424;SDS011;12193;42.642;23.384;2023-05-29T12:37:46;8.43;;;4.07;;
6424;SDS011;12193;42.642;23.384;2023-05-29T12:40:17;6.60;;;4.33;;
6424;SDS011;12193;42.642;23.384;2023-05-29T12:42:48;7.97;;;4.00;;
6424;SDS011;12193;42.642;23.384;2023-05-29T12:45:23;7.73;;;4.20;;
6424;SDS011;12193;42.642;23.384;2023-05-29T12:47:58;9.90;;;4.37;;
6424;SDS011;12193;42.642;23.384;2023-05-29T12:50:29;11.63;;;4.63;;
6424;SDS011;12193;42.642;23.384;2023-05-29T12:52:59;7.47;;;4.00;;
6424;SDS011;12193;42.642;23.384;2023-05-29T12:55:31;6.23;;;4.03;;
6424;SDS011;12193;42.642;23.384;2023-05-29T12:58:02;7.77;;;3.77;;
6424;SDS011;12193;42.642;23.384;2023-05-29T13:00:33;8.17;;;4.00;;
6424;SDS011;12193;42.642;23.384;2023-05-29T13:03:07;6.17;;;3.90;;
6424;SDS011;12193;42.642;23.384;2023-05-29T13:05:37;5.27;;;3.50;;
6424;SDS011;12193;42.642;23.384;2023-05-29T13:08:07;6.90;;;3.93;;
6424;SDS011;12193;42.642;23.384;2023-05-29T13:10:36;5.77;;;3.90;;
6424;SDS011;12193;42.642;23.384;2023-05-29T13:13:05;7.30;;;3.97;;
6424;SDS011;12193;42.642;23.384;2023-05-29T13:15:36;6.27;;;4.17;;
6424;SDS011;12193;42.642;23.384;2023-05-29T13:18:08;6.73;;;4.17;;
6424;SDS011;12193;42.642;23.384;2023-05-29T13:20:42;7.40;;;4.33;;
6424;SDS011;12193;42.642;23.384;2023-05-29T13:23:12;7.77;;;4.63;;
6424;SDS011;12193;42.642;23.384;2023-05-29T13:25:41;6.37;;;4.73;;
6424;SDS011;12193;42.642;23.384;2023-05-29T13:28:11;7.53;;;4.53;;
6424;SDS011;12193;42.642;23.384;2023-05-29T13:30:40;8.50;;;4.27;;
6424;SDS011;12193;42.642;23.384;2023-05-29T13:33:13;7.30;;;4.30;;
6424;SDS011;12193;42.642;23.384;2023-05-29T13:35:42;10.67;;;5.10;;
6424;SDS011;12193;42.642;23.384;2023-05-29T13:38:11;12.30;;;5.23;;
6424;SDS011;12193;42.642;23.384;2023-05-29T13:40:40;8.03;;;4.90;;
6424;SDS011;12193;42.642;23.384;2023-05-29T13:43:10;8.20;;;5.20;;
6424;SDS011;12193;42.642;23.384;2023-05-29T13:45:39;6.63;;;4.10;;
6424;SDS011;12193;42.642;23.384;2023-05-29T13:48:08;8.47;;;4.83;;
6424;SDS011;12193;42.642;23.384;2023-05-29T13:50:40;7.70;;;5.07;;
6424;SDS011;12193;42.642;23.384;2023-05-29T13:53:10;7.17;;;4.70;;
6424;SDS011;12193;42.642;23.384;2023-05-29T13:55:40;8.30;;;5.10;;
6424;SDS011;12193;42.642;23.384;2023-05-29T13:58:09;10.47;;;5.60;;
6424;SDS011;12193;42.642;23.384;2023-05-29T14:00:39;8.47;;;5.10;;
6424;SDS011;12193;42.642;23.384;2023-05-29T14:03:08;9.87;;;5.80;;
6424;SDS011;12193;42.642;23.384;2023-05-29T14:05:39;7.33;;;4.80;;
6424;SDS011;12193;42.642;23.384;2023-05-29T14:08:09;8.57;;;5.30;;
6424;SDS011;12193;42.642;23.384;2023-05-29T14:10:38;7.33;;;4.67;;
6424;SDS011;12193;42.642;23.384;2023-05-29T14:13:07;8.93;;;5.90;;
6424;SDS011;12193;42.642;23.384;2023-05-29T14:15:36;9.60;;;5.70;;
6424;SDS011;12193;42.642;23.384;2023-05-29T14:18:05;8.20;;;5.23;;
6424;SDS011;12193;42.642;23.384;2023-05-29T14:20:35;6.23;;;4.70;;
6424;SDS011;12193;42.642;23.384;2023-05-29T14:23:07;9.60;;;5.20;;
6424;SDS011;12193;42.642;23.384;2023-05-29T14:25:39;9.93;;;5.57;;
6424;SDS011;12193;42.642;23.384;2023-05-29T14:28:08;6.43;;;4.37;;
6424;SDS011;12193;42.642;23.384;2023-05-29T14:30:38;6.83;;;3.87;;
6424;SDS011;12193;42.642;23.384;2023-05-29T14:33:07;6.80;;;3.67;;
6424;SDS011;12193;42.642;23.384;2023-05-29T14:35:37;6.03;;;3.80;;
6424;SDS011;12193;42.642;23.384;2023-05-29T14:38:09;5.57;;;3.10;;
6424;SDS011;12193;42.642;23.384;2023-05-29T14:40:38;4.43;;;2.50;;
6424;SDS011;12193;42.642;23.384;2023-05-29T14:43:08;3.60;;;2.20;;
6424;SDS011;12193;42.642;23.384;2023-05-29T14:45:37;3.60;;;2.43;;
6424;SDS011;12193;42.642;23.384;2023-05-29T14:48:06;3.73;;;2.63;;
6424;SDS011;12193;42.642;23.384;2023-05-29T14:50:36;5.87;;;2.60;;
6424;SDS011;12193;42.642;23.384;2023-05-29T14:53:05;3.67;;;2.90;;
6424;SDS011;12193;42.642;23.384;2023-05-29T14:55:37;9.93;;;3.77;;
6424;SDS011;12193;42.642;23.384;2023-05-29T14:58:07;6.43;;;4.10;;
6424;SDS011;12193;42.642;23.384;2023-05-29T15:00:37;5.20;;;3.80;;
6424;SDS011;12193;42.642;23.384;2023-05-29T15:03:07;4.50;;;3.43;;
6424;SDS011;12193;42.642;23.384;2023-05-29T15:05:37;5.83;;;3.17;;
6424;SDS011;12193;42.642;23.384;2023-05-29T15:08:06;7.67;;;3.67;;
6424;SDS011;12193;42.642;23.384;2023-05-29T15:10:38;4.97;;;3.03;;
6424;SDS011;12193;42.642;23.384;2023-05-29T15:13:07;4.40;;;2.97;;
6424;SDS011;12193;42.642;23.384;2023-05-29T15:15:37;3.83;;;3.00;;
6424;SDS011;12193;42.642;23.384;2023-05-29T15:18:06;5.57;;;3.10;;
6424;SDS011;12193;42.642;23.384;2023-05-29T15:20:35;6.00;;;2.93;;
6424;SDS011;12193;42.642;23.384;2023-05-29T15:23:04;6.10;;;3.30;;
6424;SDS011;12193;42.642;23.384;2023-05-29T15:25:34;7.23;;;3.67;;
6424;SDS011;12193;42.642;23.384;2023-05-29T15:28:06;4.53;;;3.00;;
6424;SDS011;12193;42.642;23.384;2023-05-29T15:30:35;6.47;;;3.37;;
6424;SDS011;12193;42.642;23.384;2023-05-29T15:33:04;5.47;;;3.47;;
6424;SDS011;12193;42.642;23.384;2023-05-29T15:35:35;4.20;;;3.03;;
6424;SDS011;12193;42.642;23.384;2023-05-29T15:38:07;5.97;;;3.60;;
6424;SDS011;12193;42.642;23.384;2023-05-29T15:40:38;6.63;;;3.60;;
6424;SDS011;12193;42.642;23.384;2023-05-29T15:43:10;5.77;;;3.33;;
6424;SDS011;12193;42.642;23.384;2023-05-29T15:45:39;6.37;;;3.63;;
6424;SDS011;12193;42.642;23.384;2023-05-29T15:48:09;3.40;;;3.00;;
6424;SDS011;12193;42.642;23.384;2023-05-29T15:50:38;5.17;;;3.20;;
6424;SDS011;12193;42.642;23.384;2023-05-29T15:53:08;3.90;;;3.00;;
6424;SDS011;12193;42.642;23.384;2023-05-29T15:55:37;5.13;;;3.20;;
6424;SDS011;12193;42.642;23.384;2023-05-29T15:58:09;6.67;;;3.80;;
6424;SDS011;12193;42.642;23.384;2023-05-29T16:00:39;4.63;;;3.20;;
6424;SDS011;12193;42.642;23.384;2023-05-29T16:03:08;8.60;;;3.67;;
6424;SDS011;12193;42.642;23.384;2023-05-29T16:05:38;11.73;;;6.73;;
6424;SDS011;12193;42.642;23.384;2023-05-29T16:08:07;7.33;;;4.27;;
6424;SDS011;12193;42.642;23.384;2023-05-29T16:10:37;5.43;;;3.73;;
6424;SDS011;12193;42.642;23.384;2023-05-29T16:13:10;7.90;;;3.93;;
6424;SDS011;12193;42.642;23.384;2023-05-29T16:15:40;4.53;;;3.77;;
6424;SDS011;12193;42.642;23.384;2023-05-29T16:18:11;9.20;;;4.47;;
6424;SDS011;12193;42.642;23.384;2023-05-29T16:20:41;6.63;;;4.40;;
6424;SDS011;12193;42.642;23.384;2023-05-29T16:23:10;6.67;;;4.37;;
6424;SDS011;12193;42.642;23.384;2023-05-29T16:25:39;5.30;;;4.40;;
6424;SDS011;12193;42.642;23.384;2023-05-29T16:28:11;6.97;;;4.70;;
6424;SDS011;12193;42.642;23.384;2023-05-29T16:30:41;6.80;;;4.60;;
6424;SDS011;12193;42.642;23.384;2023-05-29T16:33:10;11.23;;;5.33;;
6424;SDS011;12193;42.642;23.384;2023-05-29T16:35:39;7.90;;;4.87;;
6424;SDS011;12193;42.642;23.384;2023-05-29T16:38:09;7.43;;;5.00;;
6424;SDS011;12193;42.642;23.384;2023-05-29T16:40:38;6.57;;;4.70;;
6424;SDS011;12193;42.642;23.384;2023-05-29T16:43:07;8.07;;;4.50;;
6424;SDS011;12193;42.642;23.384;2023-05-29T16:45:39;7.10;;;5.30;;
6424;SDS011;12193;42.642;23.384;2023-05-29T16:48:08;6.87;;;5.10;;
6424;SDS011;12193;42.642;23.384;2023-05-29T16:50:38;7.80;;;4.50;;
6424;SDS011;12193;42.642;23.384;2023-05-29T16:53:07;9.43;;;4.70;;
6424;SDS011;12193;42.642;23.384;2023-05-29T16:55:36;7.27;;;4.40;;
6424;SDS011;12193;42.642;23.384;2023-05-29T16:58:07;7.90;;;5.67;;
6424;SDS011;12193;42.642;23.384;2023-05-29T17:00:36;7.70;;;4.50;;
6424;SDS011;12193;42.642;23.384;2023-05-29T17:03:08;8.43;;;4.90;;
6424;SDS011;12193;42.642;23.384;2023-05-29T17:05:37;6.77;;;4.00;;
6424;SDS011;12193;42.642;23.384;2023-05-29T17:08:08;7.07;;;4.60;;
6424;SDS011;12193;42.642;23.384;2023-05-29T17:10:38;5.93;;;4.60;;
6424;SDS011;12193;42.642;23.384;2023-05-29T17:13:10;7.50;;;4.70;;
6424;SDS011;12193;42.642;23.384;2023-05-29T17:15:43;7.70;;;4.87;;
6424;SDS011;12193;42.642;23.384;2023-05-29T17:18:12;6.20;;;4.53;;
6424;SDS011;12193;42.642;23.384;2023-05-29T17:20:41;6.57;;;4.67;;
6424;SDS011;12193;42.642;23.384;2023-05-29T17:23:10;4.83;;;4.00;;
6424;SDS011;12193;42.642;23.384;2023-05-29T17:25:40;7.03;;;3.90;;
6424;SDS011;12193;42.642;23.384;2023-05-29T17:28:09;6.17;;;4.43;;
6424;SDS011;12193;42.642;23.384;2023-05-29T17:30:38;6.70;;;4.90;;
6424;SDS011;12193;42.642;23.384;2023-05-29T17:33:10;6.50;;;4.10;;
6424;SDS011;12193;42.642;23.384;2023-05-29T17:35:40;6.47;;;4.57;;
6424;SDS011;12193;42.642;23.384;2023-05-29T17:38:09;11.60;;;5.37;;
6424;SDS011;12193;42.642;23.384;2023-05-29T17:40:38;8.27;;;5.30;;
6424;SDS011;12193;42.642;23.384;2023-05-29T17:43:08;8.23;;;5.23;;
6424;SDS011;12193;42.642;23.384;2023-05-29T17:45:37;7.83;;;5.40;;
6424;SDS011;12193;42.642;23.384;2023-05-29T17:48:08;10.57;;;5.97;;
6424;SDS011;12193;42.642;23.384;2023-05-29T17:50:38;11.23;;;6.00;;
6424;SDS011;12193;42.642;23.384;2023-05-29T17:53:07;11.17;;;5.63;;
6424;SDS011;12193;42.642;23.384;2023-05-29T17:55:36;11.47;;;5.80;;
6424;SDS011;12193;42.642;23.384;2023-05-29T17:58:06;10.60;;;5.80;;
6424;SDS011;12193;42.642;23.384;2023-05-29T18:00:36;11.20;;;6.20;;
6424;SDS011;12193;42.642;23.384;2023-05-29T18:03:05;11.43;;;6.17;;
6424;SDS011;12193;42.642;23.384;2023-05-29T18:05:37;14.03;;;7.77;;
6424;SDS011;12193;42.642;23.384;2023-05-29T18:08:06;11.20;;;6.00;;
6424;SDS011;12193;42.642;23.384;2023-05-29T18:10:36;8.67;;;5.50;;
6424;SDS011;12193;42.642;23.384;2023-05-29T18:13:05;8.23;;;5.00;;
6424;SDS011;12193;42.642;23.384;2023-05-29T18:15:34;10.37;;;5.27;;
6424;SDS011;12193;42.642;23.384;2023-05-29T18:18:03;9.23;;;5.20;;
6424;SDS011;12193;42.642;23.384;2023-05-29T18:20:33;7.33;;;5.00;;
6424;SDS011;12193;42.642;23.384;2023-05-29T18:23:04;9.30;;;5.60;;